createdAt,value
2023-05-08T00:01:31.240Z,101894.66
2023-05-08T00:03:58.705Z,101895.56
2023-05-08T00:06:27.722Z,101888.53
2023-05-08T00:08:55.816Z,101895.59
2023-05-08T00:11:22.918Z,101883.22
2023-05-08T00:13:49.937Z,101891.16
2023-05-08T00:16:17.101Z,101883.19
2023-05-08T00:18:44.447Z,101886.78
2023-05-08T00:21:11.516Z,101883.28
2023-05-08T00:23:38.485Z,101883.28
2023-05-08T00:26:05.696Z,101882.44
2023-05-08T00:28:32.698Z,101887.75
2023-05-08T00:31:02.064Z,101886.84
2023-05-08T00:33:29.295Z,101883.38
2023-05-08T00:36:05.136Z,101889.56
2023-05-08T00:38:36.914Z,101884.31
2023-05-08T00:41:04.393Z,101889.63
2023-05-08T00:43:31.447Z,101894.09
2023-05-08T00:46:02.182Z,101888.78
2023-05-08T00:48:34.267Z,101893.25
2023-05-08T00:51:06.451Z,101899.41
2023-05-08T00:53:39.093Z,101884.44
2023-05-08T00:56:13.863Z,101885.34
2023-05-08T00:58:43.329Z,101888.94
2023-05-08T01:01:11.392Z,101888.91
2023-05-08T01:03:38.647Z,101887.19
2023-05-08T01:06:06.840Z,101884.53
2023-05-08T01:08:34.927Z,101884.66
2023-05-08T01:11:19.188Z,101877.53
2023-05-08T01:13:52.363Z,101883.88
2023-05-08T01:16:35.985Z,101882.38
2023-05-08T01:19:22.524Z,101884.28
2023-05-08T01:22:00.904Z,101883.63
2023-05-08T01:25:21.009Z,101877.56
2023-05-08T01:28:21.857Z,101872.47
2023-05-08T01:31:14.497Z,101878.88
2023-05-08T01:34:09.055Z,101878.16
2023-05-08T01:37:08.381Z,101893.25
2023-05-08T01:40:07.789Z,101890.72
2023-05-08T01:42:50.794Z,101884.50
2023-05-08T01:45:26.870Z,101894.25
2023-05-08T01:48:11.989Z,101897.81
2023-05-08T01:50:52.802Z,101896.09
2023-05-08T01:53:43.492Z,101894.34
2023-05-08T01:56:17.146Z,101891.75
2023-05-08T01:58:46.785Z,101898.88
2023-05-08T02:01:18.887Z,101897.13
2023-05-08T02:03:48.590Z,101905.03
2023-05-08T02:06:20.068Z,101909.41
2023-05-08T02:08:48.801Z,101899.81
2023-05-08T02:11:20.822Z,101894.66
2023-05-08T02:13:49.934Z,101896.53
2023-05-08T02:16:19.289Z,101900.09
2023-05-08T02:18:52.682Z,101910.69
2023-05-08T02:21:22.481Z,101901.97
2023-05-08T02:23:52.282Z,101911.72
2023-05-08T02:26:22.343Z,101915.31
2023-05-08T02:28:53.402Z,101904.75
2023-05-08T02:31:22.084Z,101906.53
2023-05-08T02:33:50.795Z,101912.66
2023-05-08T02:36:22.510Z,101912.69
2023-05-08T02:38:54.194Z,101911.84
2023-05-08T02:41:26.052Z,101910.09
2023-05-08T02:43:53.766Z,101909.31
2023-05-08T02:46:58.807Z,101908.47
2023-05-08T02:50:13.592Z,101919.22
2023-05-08T02:53:03.263Z,101901.66
2023-05-08T02:55:49.557Z,101906.09
2023-05-08T02:58:30.544Z,101903.41
2023-05-08T03:01:07.418Z,101902.53
2023-05-08T03:03:46.159Z,101891.97
2023-05-08T03:06:19.440Z,101899.94
2023-05-08T03:08:49.049Z,101902.63
2023-05-08T03:11:22.636Z,101900.84
2023-05-08T03:13:58.845Z,101899.97
2023-05-08T03:16:34.882Z,101904.38
2023-05-08T03:19:10.657Z,101907.09
2023-05-08T03:21:40.926Z,101906.19
2023-05-08T03:24:10.789Z,101904.44
2023-05-08T03:26:38.387Z,101893.91
2023-05-08T03:29:06.776Z,101900.00
2023-05-08T03:31:36.949Z,101898.25
2023-05-08T03:34:05.115Z,101899.16
2023-05-08T03:36:32.366Z,101899.16
2023-05-08T03:39:00.279Z,101903.56
2023-05-08T03:41:27.546Z,101907.16
2023-05-08T03:43:56.323Z,101898.34
2023-05-08T03:46:25.752Z,101902.75
2023-05-08T03:48:54.744Z,101902.75
2023-05-08T03:51:22.532Z,101905.41
2023-05-08T03:53:50.071Z,101895.72
2023-05-08T03:56:18.158Z,101905.41
2023-05-08T03:59:06.813Z,101907.16
2023-05-08T04:01:40.898Z,101909.81
2023-05-08T04:04:32.484Z,101906.31
2023-05-08T04:07:06.520Z,101901.97
2023-05-08T04:10:09.497Z,101898.50
2023-05-08T04:13:07.200Z,101900.31
2023-05-08T04:16:14.017Z,101903.03
2023-05-08T04:18:49.773Z,101892.44
2023-05-08T04:21:25.386Z,101893.25
2023-05-08T04:23:57.768Z,101897.63
2023-05-08T04:26:26.770Z,101895.84
2023-05-08T04:28:57.102Z,101898.47
2023-05-08T04:31:25.940Z,101897.56
2023-05-08T04:33:54.203Z,101901.97
2023-05-08T04:36:21.568Z,101901.94
2023-05-08T04:38:48.788Z,101908.94
2023-05-08T04:41:16.106Z,101907.16
2023-05-08T04:43:43.998Z,101912.34
2023-05-08T04:46:12.120Z,101915.75
2023-05-08T04:48:39.801Z,101917.41
2023-05-08T04:51:07.042Z,101921.72
2023-05-08T04:53:34.073Z,101925.09
2023-05-08T04:56:01.934Z,101928.53
2023-05-08T04:58:29.710Z,101931.09
2023-05-08T05:01:01.666Z,101927.50
2023-05-08T05:03:28.764Z,101922.13
2023-05-08T05:06:00.319Z,101922.00
2023-05-08T05:08:27.836Z,101930.75
2023-05-08T05:10:56.449Z,101940.38
2023-05-08T05:13:23.836Z,101942.03
2023-05-08T05:15:54.243Z,101937.47
2023-05-08T05:18:22.170Z,101940.06
2023-05-08T05:20:50.694Z,101949.75
2023-05-08T05:23:17.940Z,101941.78
2023-05-08T05:25:45.598Z,101941.78
2023-05-08T05:28:13.659Z,101948.72
2023-05-08T05:30:40.798Z,101941.59
2023-05-08T05:33:08.188Z,101946.72
2023-05-08T05:35:35.565Z,101952.78
2023-05-08T05:38:02.624Z,101945.53
2023-05-08T05:40:29.792Z,101955.91
2023-05-08T05:42:56.956Z,101958.38
2023-05-08T05:45:23.950Z,101942.41
2023-05-08T05:47:53.957Z,101960.72
2023-05-08T05:50:23.002Z,101962.25
2023-05-08T05:52:50.796Z,101959.47
2023-05-08T05:55:17.943Z,101961.94
2023-05-08T05:57:47.407Z,101966.06
2023-05-08T06:00:16.469Z,101964.06
2023-05-08T06:02:48.965Z,101966.31
2023-05-08T06:05:19.175Z,101972.06
2023-05-08T06:07:46.437Z,101971.78
2023-05-08T06:10:13.490Z,101976.84
2023-05-08T06:12:40.766Z,101974.94
2023-05-08T06:15:09.844Z,101975.72
2023-05-08T06:17:37.181Z,101976.47
2023-05-08T06:20:05.067Z,101980.56
2023-05-08T06:22:32.143Z,101978.50
2023-05-08T06:24:59.891Z,101972.03
2023-05-08T06:27:26.881Z,101976.97
2023-05-08T06:29:53.943Z,101987.38
2023-05-08T06:32:22.078Z,101980.06
2023-05-08T06:34:49.402Z,101983.28
2023-05-08T06:37:16.410Z,101984.78
2023-05-08T06:39:43.606Z,101983.69
2023-05-08T06:42:10.951Z,101973.91
2023-05-08T06:44:40.727Z,101980.06
2023-05-08T06:47:08.445Z,101974.72
2023-05-08T06:49:38.584Z,101977.16
2023-05-08T06:52:05.626Z,101973.22
2023-05-08T06:54:32.682Z,101982.59
2023-05-08T06:56:59.729Z,101980.47
2023-05-08T06:59:26.909Z,101977.63
2023-05-08T07:01:53.908Z,101980.06
2023-05-08T07:04:21.074Z,101989.09
2023-05-08T07:06:48.085Z,101983.75
2023-05-08T07:09:16.218Z,101983.72
2023-05-08T07:11:43.702Z,101989.06
2023-05-08T07:14:10.691Z,101988.94
2023-05-08T07:16:37.933Z,101991.72
2023-05-08T07:19:05.413Z,101991.91
2023-05-08T07:21:32.424Z,101984.22
2023-05-08T07:23:59.567Z,101981.06
2023-05-08T07:26:26.577Z,101985.78
2023-05-08T07:28:54.293Z,101988.94
2023-05-08T07:31:22.307Z,101990.38
2023-05-08T07:33:49.472Z,101986.88
2023-05-08T07:36:16.799Z,101988.81
2023-05-08T07:38:43.767Z,101988.88
2023-05-08T07:41:10.797Z,101987.84
2023-05-08T07:43:38.057Z,101991.28
2023-05-08T07:46:05.982Z,101977.53
2023-05-08T07:48:32.986Z,101979.84
2023-05-08T07:50:59.961Z,101982.91
2023-05-08T07:53:27.478Z,101982.53
2023-05-08T07:55:54.531Z,101983.97
2023-05-08T07:58:23.700Z,101986.09
2023-05-08T08:00:51.289Z,101983.06
2023-05-08T08:03:18.381Z,101986.75
2023-05-08T08:05:45.558Z,101991.09
2023-05-08T08:08:12.591Z,101982.22
2023-05-08T08:10:39.736Z,101995.34
2023-05-08T08:13:06.814Z,101995.41
2023-05-08T08:15:33.862Z,102002.81
2023-05-08T08:18:01.605Z,102007.66
2023-05-08T08:20:28.727Z,102005.88
2023-05-08T08:22:55.669Z,102000.28
2023-05-08T08:25:22.776Z,102005.94
2023-05-08T08:27:49.716Z,102002.00
2023-05-08T08:30:18.579Z,102000.78
2023-05-08T08:32:46.628Z,101995.78
2023-05-08T08:35:14.463Z,101995.28
2023-05-08T08:37:42.062Z,101982.84
2023-05-08T08:40:09.824Z,101986.03
2023-05-08T08:42:37.075Z,101985.59
2023-05-08T08:45:04.648Z,101980.81
2023-05-08T08:47:37.853Z,101980.50
2023-05-08T08:50:07.969Z,101978.63
2023-05-08T08:53:07.495Z,101980.06
2023-05-08T08:55:40.935Z,101975.44
2023-05-08T08:58:21.193Z,101976.13
2023-05-08T09:00:50.159Z,101978.28
2023-05-08T09:03:17.929Z,101983.13
2023-05-08T09:05:45.921Z,101977.25
2023-05-08T09:08:13.142Z,101974.19
2023-05-08T09:10:40.957Z,101975.69
2023-05-08T09:13:08.082Z,101971.06
2023-05-08T09:15:35.444Z,101963.63
2023-05-08T09:18:02.816Z,101965.72
2023-05-08T09:20:30.726Z,101970.53
2023-05-08T09:23:02.210Z,101978.53
2023-05-08T09:25:47.369Z,101975.16
2023-05-08T09:28:23.785Z,101980.50
2023-05-08T09:30:59.117Z,101978.03
2023-05-08T09:33:28.778Z,101975.88
2023-05-08T09:35:57.612Z,101968.88
2023-05-08T09:38:38.907Z,101977.53
2023-05-08T09:41:16.834Z,101971.19
2023-05-08T09:43:59.924Z,101980.72
2023-05-08T09:46:27.380Z,101979.31
2023-05-08T09:49:01.341Z,101977.19
2023-05-08T09:51:30.390Z,101982.63
2023-05-08T09:53:59.655Z,101984.28
2023-05-08T09:56:39.435Z,101990.22
2023-05-08T09:59:29.234Z,101983.72
2023-05-08T10:01:57.473Z,101984.78
2023-05-08T10:04:36.495Z,101987.03
2023-05-08T10:07:04.670Z,101979.81
2023-05-08T10:09:42.699Z,101984.16
2023-05-08T10:12:17.015Z,101981.91
2023-05-08T10:14:46.490Z,101980.28
2023-05-08T10:17:25.096Z,101970.91
2023-05-08T10:20:02.716Z,101971.09
2023-05-08T10:22:34.370Z,101972.97
2023-05-08T10:25:03.433Z,101974.94
2023-05-08T10:28:02.592Z,101971.59
2023-05-08T10:30:31.957Z,101975.31
2023-05-08T10:33:09.313Z,101977.38
2023-05-08T10:35:40.516Z,101972.06
2023-05-08T10:38:09.541Z,101976.38
2023-05-08T10:40:38.218Z,101975.50
2023-05-08T10:43:07.573Z,101964.38
2023-05-08T10:45:36.195Z,101963.31
2023-05-08T10:48:28.097Z,101961.16
2023-05-08T10:51:23.987Z,101960.84
2023-05-08T10:54:05.258Z,101960.28
2023-05-08T10:56:32.442Z,101960.81
2023-05-08T10:58:59.778Z,101963.78
2023-05-08T11:01:27.229Z,101972.88
2023-05-08T11:03:56.121Z,101968.78
2023-05-08T11:06:49.131Z,101972.94
2023-05-08T11:09:23.538Z,101972.78
2023-05-08T11:12:16.177Z,101971.53
2023-05-08T11:14:54.832Z,101965.63
2023-05-08T11:17:26.434Z,101966.00
2023-05-08T11:20:05.187Z,101973.53
2023-05-08T11:22:34.039Z,101963.56
2023-05-08T11:25:11.030Z,101965.47
2023-05-08T11:27:47.142Z,101958.88
2023-05-08T11:30:23.635Z,101959.28
2023-05-08T11:33:03.166Z,101960.38
2023-05-08T11:35:50.542Z,101957.69
2023-05-08T11:38:28.593Z,101944.78
2023-05-08T11:41:21.627Z,101941.38
2023-05-08T11:44:09.689Z,101947.78
2023-05-08T11:46:56.055Z,101938.94
2023-05-08T11:49:28.996Z,101941.03
2023-05-08T11:51:59.858Z,101936.22
2023-05-08T11:54:30.825Z,101940.28
2023-05-08T11:56:59.528Z,101931.59
2023-05-08T11:59:26.926Z,101942.56
2023-05-08T12:02:06.893Z,101936.19
2023-05-08T12:04:45.560Z,101937.88
2023-05-08T12:07:13.043Z,101942.66
2023-05-08T12:09:40.172Z,101945.81
2023-05-08T12:12:07.347Z,101946.03
2023-05-08T12:14:35.022Z,101946.25
2023-05-08T12:17:03.073Z,101938.84
2023-05-08T12:19:30.069Z,101932.31
2023-05-08T12:21:58.000Z,101939.25
2023-05-08T12:24:26.270Z,101923.16
2023-05-08T12:26:57.846Z,101929.25
2023-05-08T12:29:28.057Z,101929.88
2023-05-08T12:31:55.864Z,101924.94
2023-05-08T12:34:23.894Z,101916.56
2023-05-08T12:37:05.158Z,101919.63
2023-05-08T12:39:37.584Z,101913.59
2023-05-08T12:42:04.934Z,101915.34
2023-05-08T12:44:32.269Z,101910.03
2023-05-08T12:46:59.433Z,101908.75
2023-05-08T12:49:29.978Z,101910.41
2023-05-08T12:52:12.880Z,101903.63
2023-05-08T12:54:48.312Z,101909.19
2023-05-08T12:57:18.481Z,101900.22
2023-05-08T12:59:48.032Z,101897.72
2023-05-08T13:02:23.951Z,101901.16
2023-05-08T13:04:59.367Z,101907.28
2023-05-08T13:07:33.220Z,101896.00
2023-05-08T13:10:04.528Z,101895.41
2023-05-08T13:12:32.101Z,101893.59
2023-05-08T13:14:59.299Z,101886.69
2023-05-08T13:17:26.308Z,101888.44
2023-05-08T13:19:53.360Z,101885.84
2023-05-08T13:22:23.070Z,101895.84
2023-05-08T13:24:50.174Z,101872.28
2023-05-08T13:27:17.314Z,101873.16
2023-05-08T13:29:44.373Z,101874.75
2023-05-08T13:32:11.490Z,101872.06
2023-05-08T13:34:44.263Z,101875.41
2023-05-08T13:37:17.099Z,101874.94
2023-05-08T13:39:44.138Z,101877.38
2023-05-08T13:42:11.165Z,101878.25
2023-05-08T13:44:38.068Z,101871.81
2023-05-08T13:47:05.104Z,101869.44
2023-05-08T13:49:32.131Z,101865.00
2023-05-08T13:51:59.100Z,101856.56
2023-05-08T13:54:26.078Z,101853.31
2023-05-08T13:56:54.090Z,101858.16
2023-05-08T13:59:21.410Z,101852.78
2023-05-08T14:01:48.662Z,101842.69
2023-05-08T14:04:15.779Z,101850.91
2023-05-08T14:06:42.852Z,101846.59
2023-05-08T14:09:09.905Z,101837.84
2023-05-08T14:11:37.055Z,101841.47
2023-05-08T14:14:04.945Z,101850.16
2023-05-08T14:16:33.151Z,101848.56
2023-05-08T14:19:00.441Z,101849.44
2023-05-08T14:21:27.615Z,101848.78
2023-05-08T14:23:55.004Z,101848.06
2023-05-08T14:26:22.300Z,101842.56
2023-05-08T14:28:49.467Z,101852.88
2023-05-08T14:31:16.598Z,101842.03
2023-05-08T14:33:43.681Z,101841.06
2023-05-08T14:36:10.714Z,101837.38
2023-05-08T14:38:37.808Z,101841.69
2023-05-08T14:41:05.131Z,101839.41
2023-05-08T14:43:32.422Z,101842.78
2023-05-08T14:45:59.698Z,101835.16
2023-05-08T14:48:27.561Z,101835.47
2023-05-08T14:50:54.555Z,101843.91
2023-05-08T14:53:21.890Z,101840.03
2023-05-08T14:55:49.355Z,101846.91
2023-05-08T14:58:16.795Z,101840.78
2023-05-08T15:00:43.932Z,101836.28
2023-05-08T15:03:11.086Z,101833.59
2023-05-08T15:05:38.942Z,101836.72
2023-05-08T15:08:06.232Z,101835.91
2023-05-08T15:10:33.305Z,101829.78
2023-05-08T15:13:00.641Z,101839.41
2023-05-08T15:15:28.059Z,101833.25
2023-05-08T15:17:55.307Z,101837.97
2023-05-08T15:20:23.105Z,101835.78
2023-05-08T15:22:50.134Z,101835.53
2023-05-08T15:25:17.518Z,101836.16
2023-05-08T15:27:44.683Z,101836.78
2023-05-08T15:30:12.725Z,101824.06
2023-05-08T15:32:40.306Z,101824.03
2023-05-08T15:35:08.000Z,101825.28
2023-05-08T15:37:37.044Z,101822.72
2023-05-08T15:40:04.657Z,101825.44
2023-05-08T15:42:31.908Z,101825.16
2023-05-08T15:44:59.187Z,101812.97
2023-05-08T15:47:27.467Z,101815.63
2023-05-08T15:49:55.445Z,101811.28
2023-05-08T15:52:22.847Z,101820.19
2023-05-08T15:54:50.433Z,101825.03
2023-05-08T15:57:17.655Z,101826.38
2023-05-08T15:59:44.825Z,101828.53
2023-05-08T16:02:11.877Z,101826.41
2023-05-08T16:04:39.845Z,101831.69
2023-05-08T16:07:11.132Z,101836.19
2023-05-08T16:09:38.261Z,101832.22
2023-05-08T16:12:05.875Z,101826.97
2023-05-08T16:14:33.004Z,101819.03
2023-05-08T16:17:00.050Z,101824.19
2023-05-08T16:19:27.148Z,101825.66
2023-05-08T16:21:54.201Z,101821.75
2023-05-08T16:24:21.208Z,101826.06
2023-05-08T16:26:48.330Z,101834.75
2023-05-08T16:29:15.454Z,101833.78
2023-05-08T16:31:42.549Z,101828.69
2023-05-08T16:34:09.560Z,101828.06
2023-05-08T16:36:36.843Z,101813.13
2023-05-08T16:39:04.049Z,101813.22
2023-05-08T16:41:31.076Z,101800.19
2023-05-08T16:43:58.246Z,101810.00
2023-05-08T16:46:30.088Z,101802.84
2023-05-08T16:48:57.686Z,101802.84
2023-05-08T16:51:24.844Z,101796.72
2023-05-08T16:53:51.991Z,101796.88
2023-05-08T16:56:19.090Z,101794.31
2023-05-08T16:58:46.220Z,101791.53
2023-05-08T17:01:14.227Z,101800.44
2023-05-08T17:03:41.397Z,101799.66
2023-05-08T17:06:09.055Z,101799.81
2023-05-08T17:08:36.263Z,101797.41
2023-05-08T17:11:03.395Z,101806.66
2023-05-08T17:13:34.638Z,101806.06
2023-05-08T17:16:09.518Z,101803.66
2023-05-08T17:18:36.661Z,101797.66
2023-05-08T17:21:15.020Z,101803.22
2023-05-08T17:23:42.160Z,101807.00
2023-05-08T17:26:09.221Z,101806.31
2023-05-08T17:28:37.172Z,101815.53
2023-05-08T17:31:06.113Z,101815.09
2023-05-08T17:33:33.587Z,101831.69
2023-05-08T17:36:02.003Z,101826.41
2023-05-08T17:38:29.127Z,101834.06
2023-05-08T17:40:56.630Z,101833.69
2023-05-08T17:43:24.349Z,101845.66
2023-05-08T17:45:51.450Z,101835.22
2023-05-08T17:48:18.455Z,101831.00
2023-05-08T17:50:46.864Z,101827.50
2023-05-08T17:53:13.984Z,101832.06
2023-05-08T17:55:41.106Z,101835.44
2023-05-08T17:58:08.121Z,101830.75
2023-05-08T18:00:35.166Z,101829.41
2023-05-08T18:03:02.360Z,101826.16
2023-05-08T18:05:30.462Z,101823.75
2023-05-08T18:07:57.569Z,101836.56
2023-05-08T18:10:24.644Z,101839.47
2023-05-08T18:12:51.734Z,101844.06
2023-05-08T18:15:18.722Z,101838.00
2023-05-08T18:17:45.792Z,101838.22
2023-05-08T18:20:13.089Z,101842.00
2023-05-08T18:22:40.400Z,101836.78
2023-05-08T18:25:08.057Z,101841.19
2023-05-08T18:27:35.081Z,101835.94
2023-05-08T18:30:02.269Z,101833.28
2023-05-08T18:32:29.386Z,101833.31
2023-05-08T18:34:57.222Z,101833.31
2023-05-08T18:37:24.707Z,101832.53
2023-05-08T18:39:51.691Z,101830.00
2023-05-08T18:42:18.685Z,101825.59
2023-05-08T18:44:46.259Z,101827.41
2023-05-08T18:47:13.306Z,101825.59
2023-05-08T18:49:40.428Z,101823.00
2023-05-08T18:52:07.413Z,101821.94
2023-05-08T18:54:34.402Z,101819.13
2023-05-08T18:57:01.407Z,101813.75
2023-05-08T18:59:28.431Z,101808.41
2023-05-08T19:01:55.496Z,101811.22
2023-05-08T19:04:22.488Z,101807.81
2023-05-08T19:06:49.415Z,101815.94
2023-05-08T19:09:16.544Z,101802.66
2023-05-08T19:11:43.550Z,101797.41
2023-05-08T19:14:10.565Z,101797.34
2023-05-08T19:16:37.631Z,101788.41
2023-05-08T19:19:04.838Z,101784.03
2023-05-08T19:21:31.979Z,101797.50
2023-05-08T19:23:59.097Z,101806.56
2023-05-08T19:26:26.514Z,101802.25
2023-05-08T19:28:53.725Z,101793.44
2023-05-08T19:31:20.797Z,101795.28
2023-05-08T19:33:48.925Z,101791.94
2023-05-08T19:36:16.068Z,101793.88
2023-05-08T19:38:43.159Z,101799.38
2023-05-08T19:41:11.911Z,101795.00
2023-05-08T19:43:38.884Z,101796.91
2023-05-08T19:46:05.917Z,101801.50
2023-05-08T19:48:32.857Z,101798.09
2023-05-08T19:51:09.668Z,101802.59
2023-05-08T19:53:36.651Z,101797.47
2023-05-08T19:56:03.666Z,101802.13
2023-05-08T19:58:31.679Z,101798.69
2023-05-08T20:00:58.725Z,101803.22
2023-05-08T20:03:25.970Z,101799.88
2023-05-08T20:05:53.437Z,101804.44
2023-05-08T20:08:20.520Z,101794.81
2023-05-08T20:10:50.108Z,101803.75
2023-05-08T20:13:17.862Z,101807.28
2023-05-08T20:15:45.089Z,101804.81
2023-05-08T20:18:12.308Z,101809.38
2023-05-08T20:20:39.353Z,101810.50
2023-05-08T20:23:06.331Z,101810.53
2023-05-08T20:25:33.402Z,101807.00
2023-05-08T20:28:00.515Z,101813.34
2023-05-08T20:30:27.676Z,101803.69
2023-05-08T20:32:54.803Z,101807.13
2023-05-08T20:35:21.894Z,101815.00
2023-05-08T20:37:49.334Z,101812.25
2023-05-08T20:40:16.866Z,101822.78
2023-05-08T20:42:43.995Z,101823.72
2023-05-08T20:45:11.480Z,101817.47
2023-05-08T20:47:38.644Z,101817.41
2023-05-08T20:50:07.290Z,101813.78
2023-05-08T20:52:36.067Z,101814.56
2023-05-08T20:55:05.549Z,101813.66
2023-05-08T20:57:32.575Z,101813.59
2023-05-08T20:59:59.599Z,101805.63
2023-05-08T21:02:26.659Z,101807.53
2023-05-08T21:04:53.857Z,101803.19
2023-05-08T21:07:20.991Z,101801.44
2023-05-08T21:09:47.980Z,101793.66
2023-05-08T21:12:14.968Z,101791.97
2023-05-08T21:14:43.977Z,101797.38
2023-05-08T21:17:11.274Z,101803.59
2023-05-08T21:19:38.328Z,101793.06
2023-05-08T21:22:05.437Z,101797.53
2023-05-08T21:24:32.429Z,101792.34
2023-05-08T21:27:01.994Z,101797.72
2023-05-08T21:29:29.302Z,101796.97
2023-05-08T21:31:56.507Z,101795.44
2023-05-08T21:34:23.776Z,101785.00
2023-05-08T21:36:50.922Z,101782.53
2023-05-08T21:39:18.091Z,101779.16
2023-05-08T21:41:46.206Z,101784.59
2023-05-08T21:44:13.352Z,101789.09
2023-05-08T21:46:40.351Z,101783.03
2023-05-08T21:49:07.581Z,101784.06
2023-05-08T21:51:35.226Z,101774.50
2023-05-08T21:54:02.286Z,101778.16
2023-05-08T21:56:29.272Z,101777.34
2023-05-08T21:58:56.319Z,101774.78
2023-05-08T22:01:23.288Z,101769.53
2023-05-08T22:03:50.388Z,101767.81
2023-05-08T22:06:17.452Z,101765.16
2023-05-08T22:08:44.529Z,101765.22
2023-05-08T22:11:11.625Z,101772.38
2023-05-08T22:13:38.723Z,101774.97
2023-05-08T22:16:06.556Z,101770.53
2023-05-08T22:18:33.653Z,101768.72
2023-05-08T22:21:00.684Z,101758.16
2023-05-08T22:23:27.831Z,101767.78
2023-05-08T22:25:54.842Z,101759.84
2023-05-08T22:28:21.865Z,101758.91
2023-05-08T22:30:48.851Z,101751.88
2023-05-08T22:33:15.941Z,101753.69
2023-05-08T22:35:43.009Z,101746.56
2023-05-08T22:38:10.000Z,101740.38
2023-05-08T22:40:37.062Z,101740.41
2023-05-08T22:43:04.117Z,101742.13
2023-05-08T22:45:32.378Z,101737.66
2023-05-08T22:47:59.531Z,101735.00
2023-05-08T22:50:26.621Z,101737.59
2023-05-08T22:52:53.677Z,101733.22
2023-05-08T22:55:20.827Z,101732.34
2023-05-08T22:57:50.070Z,101728.88
2023-05-08T23:00:17.366Z,101721.78
2023-05-08T23:02:44.470Z,101725.38
2023-05-08T23:05:12.956Z,101723.53
2023-05-08T23:07:41.266Z,101710.16
2023-05-08T23:10:08.810Z,101708.44
2023-05-08T23:12:37.020Z,101704.09
2023-05-08T23:15:04.666Z,101703.22
2023-05-08T23:17:31.762Z,101705.03
2023-05-08T23:19:58.738Z,101690.81
2023-05-08T23:22:25.698Z,101682.88
2023-05-08T23:24:52.839Z,101676.84
2023-05-08T23:27:19.872Z,101684.00
2023-05-08T23:29:46.990Z,101686.72
2023-05-08T23:32:14.254Z,101672.50
2023-05-08T23:34:44.304Z,101666.34
2023-05-08T23:37:11.345Z,101667.38
2023-05-08T23:39:41.222Z,101674.59
2023-05-08T23:42:08.766Z,101671.03
2023-05-08T23:44:35.915Z,101672.78
2023-05-08T23:47:03.027Z,101671.00
2023-05-08T23:49:30.060Z,101663.78
2023-05-08T23:51:57.160Z,101668.13
2023-05-08T23:54:24.201Z,101666.34
2023-05-08T23:56:51.256Z,101663.63
2023-05-08T23:59:18.293Z,101665.34
